sensor_id;sensor_type;location;lat;lon;timestamp;P1;durP1;ratioP1;P2;durP2;ratioP2
5117;SDS011;2578;51.622;7.046;2022-10-19T00:02:04;3.20;;;1.90;;
5117;SDS011;2578;51.622;7.046;2022-10-19T00:04:29;3.13;;;1.80;;
5117;SDS011;2578;51.622;7.046;2022-10-19T00:06:55;3.30;;;2.20;;
5117;SDS011;2578;51.622;7.046;2022-10-19T00:09:21;3.20;;;1.80;;
5117;SDS011;2578;51.622;7.046;2022-10-19T00:11:47;3.10;;;1.80;;
5117;SDS011;2578;51.622;7.046;2022-10-19T00:14:15;3.20;;;2.00;;
5117;SDS011;2578;51.622;7.046;2022-10-19T00:16:43;3.17;;;2.00;;
5117;SDS011;2578;51.622;7.046;2022-10-19T00:19:12;3.17;;;2.10;;
5117;SDS011;2578;51.622;7.046;2022-10-19T00:21:44;3.23;;;2.00;;
5117;SDS011;2578;51.622;7.046;2022-10-19T00:24:10;3.33;;;2.30;;
5117;SDS011;2578;51.622;7.046;2022-10-19T00:26:36;3.33;;;2.37;;
5117;SDS011;2578;51.622;7.046;2022-10-19T00:29:03;3.30;;;2.27;;
5117;SDS011;2578;51.622;7.046;2022-10-19T00:31:29;3.30;;;2.40;;
5117;SDS011;2578;51.622;7.046;2022-10-19T00:33:55;3.50;;;2.80;;
5117;SDS011;2578;51.622;7.046;2022-10-19T00:36:26;3.40;;;2.50;;
5117;SDS011;2578;51.622;7.046;2022-10-19T00:38:54;3.33;;;2.60;;
5117;SDS011;2578;51.622;7.046;2022-10-19T00:41:20;3.40;;;2.50;;
5117;SDS011;2578;51.622;7.046;2022-10-19T00:46:25;3.43;;;2.63;;
5117;SDS011;2578;51.622;7.046;2022-10-19T00:48:53;3.43;;;2.80;;
5117;SDS011;2578;51.622;7.046;2022-10-19T00:51:22;3.57;;;2.90;;
5117;SDS011;2578;51.622;7.046;2022-10-19T00:53:50;3.50;;;2.90;;
5117;SDS011;2578;51.622;7.046;2022-10-19T00:59:28;3.80;;;3.40;;
5117;SDS011;2578;51.622;7.046;2022-10-19T01:01:55;3.50;;;2.80;;
5117;SDS011;2578;51.622;7.046;2022-10-19T01:04:23;3.50;;;2.70;;
5117;SDS011;2578;51.622;7.046;2022-10-19T01:06:51;3.60;;;2.90;;
5117;SDS011;2578;51.622;7.046;2022-10-19T01:09:18;3.40;;;2.60;;
5117;SDS011;2578;51.622;7.046;2022-10-19T01:22:55;3.67;;;3.27;;
5117;SDS011;2578;51.622;7.046;2022-10-19T01:39:25;3.57;;;2.97;;
5117;SDS011;2578;51.622;7.046;2022-10-19T01:42:12;3.47;;;2.70;;
5117;SDS011;2578;51.622;7.046;2022-10-19T01:44:44;3.53;;;3.00;;
5117;SDS011;2578;51.622;7.046;2022-10-19T01:47:30;3.50;;;2.90;;
5117;SDS011;2578;51.622;7.046;2022-10-19T01:52:43;3.60;;;3.00;;
5117;SDS011;2578;51.622;7.046;2022-10-19T01:55:10;7.03;;;4.50;;
5117;SDS011;2578;51.622;7.046;2022-10-19T01:57:42;3.80;;;3.40;;
5117;SDS011;2578;51.622;7.046;2022-10-19T02:00:12;4.00;;;3.60;;
5117;SDS011;2578;51.622;7.046;2022-10-19T02:02:41;3.90;;;3.50;;
5117;SDS011;2578;51.622;7.046;2022-10-19T02:05:13;3.80;;;3.40;;
5117;SDS011;2578;51.622;7.046;2022-10-19T02:07:41;4.00;;;3.60;;
5117;SDS011;2578;51.622;7.046;2022-10-19T02:10:11;4.00;;;3.60;;
5117;SDS011;2578;51.622;7.046;2022-10-19T02:12:37;3.80;;;3.40;;
5117;SDS011;2578;51.622;7.046;2022-10-19T02:15:12;4.30;;;3.90;;
5117;SDS011;2578;51.622;7.046;2022-10-19T02:17:43;4.00;;;3.60;;
5117;SDS011;2578;51.622;7.046;2022-10-19T02:20:11;4.00;;;3.60;;
5117;SDS011;2578;51.622;7.046;2022-10-19T02:22:37;4.17;;;3.77;;
5117;SDS011;2578;51.622;7.046;2022-10-19T02:25:04;4.40;;;4.00;;
5117;SDS011;2578;51.622;7.046;2022-10-19T02:27:31;4.80;;;4.40;;
5117;SDS011;2578;51.622;7.046;2022-10-19T02:29:57;4.50;;;4.10;;
5117;SDS011;2578;51.622;7.046;2022-10-19T02:32:23;4.50;;;4.10;;
5117;SDS011;2578;51.622;7.046;2022-10-19T02:34:50;4.70;;;4.30;;
5117;SDS011;2578;51.622;7.046;2022-10-19T02:37:15;4.70;;;4.30;;
5117;SDS011;2578;51.622;7.046;2022-10-19T02:39:41;4.60;;;4.20;;
5117;SDS011;2578;51.622;7.046;2022-10-19T02:42:14;5.20;;;4.80;;
5117;SDS011;2578;51.622;7.046;2022-10-19T02:47:11;5.60;;;5.10;;
5117;SDS011;2578;51.622;7.046;2022-10-19T02:49:59;4.90;;;4.50;;
5117;SDS011;2578;51.622;7.046;2022-10-19T02:52:28;4.90;;;4.50;;
5117;SDS011;2578;51.622;7.046;2022-10-19T02:54:54;5.23;;;4.83;;
5117;SDS011;2578;51.622;7.046;2022-10-19T02:57:21;5.37;;;4.97;;
5117;SDS011;2578;51.622;7.046;2022-10-19T02:59:49;5.60;;;5.20;;
5117;SDS011;2578;51.622;7.046;2022-10-19T03:02:15;5.80;;;5.40;;
5117;SDS011;2578;51.622;7.046;2022-10-19T03:04:42;5.70;;;5.30;;
5117;SDS011;2578;51.622;7.046;2022-10-19T03:07:09;6.80;;;6.30;;
5117;SDS011;2578;51.622;7.046;2022-10-19T03:09:36;5.83;;;5.43;;
5117;SDS011;2578;51.622;7.046;2022-10-19T03:12:02;6.87;;;6.37;;
5117;SDS011;2578;51.622;7.046;2022-10-19T03:14:28;6.70;;;6.20;;
5117;SDS011;2578;51.622;7.046;2022-10-19T03:16:53;6.60;;;6.10;;
5117;SDS011;2578;51.622;7.046;2022-10-19T03:19:19;6.70;;;6.20;;
5117;SDS011;2578;51.622;7.046;2022-10-19T03:21:45;6.43;;;5.93;;
5117;SDS011;2578;51.622;7.046;2022-10-19T03:24:11;6.50;;;6.00;;
5117;SDS011;2578;51.622;7.046;2022-10-19T03:26:36;6.03;;;5.60;;
5117;SDS011;2578;51.622;7.046;2022-10-19T03:29:02;5.93;;;5.50;;
5117;SDS011;2578;51.622;7.046;2022-10-19T03:31:28;6.40;;;5.90;;
5117;SDS011;2578;51.622;7.046;2022-10-19T03:33:54;6.90;;;6.40;;
5117;SDS011;2578;51.622;7.046;2022-10-19T03:36:27;6.93;;;6.43;;
5117;SDS011;2578;51.622;7.046;2022-10-19T03:38:55;6.60;;;6.10;;
5117;SDS011;2578;51.622;7.046;2022-10-19T03:41:23;6.97;;;6.47;;
5117;SDS011;2578;51.622;7.046;2022-10-19T03:43:51;6.50;;;6.00;;
5117;SDS011;2578;51.622;7.046;2022-10-19T03:46:17;6.67;;;6.17;;
5117;SDS011;2578;51.622;7.046;2022-10-19T03:48:43;6.73;;;6.23;;
5117;SDS011;2578;51.622;7.046;2022-10-19T03:51:10;7.20;;;6.70;;
5117;SDS011;2578;51.622;7.046;2022-10-19T03:53:50;6.30;;;5.80;;
5117;SDS011;2578;51.622;7.046;2022-10-19T03:56:18;6.47;;;5.97;;
5117;SDS011;2578;51.622;7.046;2022-10-19T03:58:45;6.70;;;6.20;;
5117;SDS011;2578;51.622;7.046;2022-10-19T04:01:13;5.97;;;5.47;;
5117;SDS011;2578;51.622;7.046;2022-10-19T04:03:44;6.20;;;5.70;;
5117;SDS011;2578;51.622;7.046;2022-10-19T04:06:11;5.50;;;5.10;;
5117;SDS011;2578;51.622;7.046;2022-10-19T04:08:39;6.60;;;6.10;;
5117;SDS011;2578;51.622;7.046;2022-10-19T04:11:06;6.20;;;5.70;;
5117;SDS011;2578;51.622;7.046;2022-10-19T04:13:36;7.40;;;6.90;;
5117;SDS011;2578;51.622;7.046;2022-10-19T04:16:02;8.00;;;7.50;;
5117;SDS011;2578;51.622;7.046;2022-10-19T04:18:28;8.67;;;8.07;;
5117;SDS011;2578;51.622;7.046;2022-10-19T04:23:22;8.20;;;7.70;;
5117;SDS011;2578;51.622;7.046;2022-10-19T04:25:48;7.40;;;6.90;;
5117;SDS011;2578;51.622;7.046;2022-10-19T04:28:13;7.50;;;7.00;;
5117;SDS011;2578;51.622;7.046;2022-10-19T04:30:39;6.90;;;6.40;;
5117;SDS011;2578;51.622;7.046;2022-10-19T04:33:05;6.80;;;6.30;;
5117;SDS011;2578;51.622;7.046;2022-10-19T04:35:30;6.97;;;6.47;;
5117;SDS011;2578;51.622;7.046;2022-10-19T04:37:57;7.93;;;7.43;;
5117;SDS011;2578;51.622;7.046;2022-10-19T04:40:23;8.70;;;8.10;;
5117;SDS011;2578;51.622;7.046;2022-10-19T04:42:49;8.03;;;7.53;;
5117;SDS011;2578;51.622;7.046;2022-10-19T04:45:14;7.20;;;6.70;;
5117;SDS011;2578;51.622;7.046;2022-10-19T04:47:40;7.80;;;7.30;;
5117;SDS011;2578;51.622;7.046;2022-10-19T04:50:05;8.10;;;7.60;;
5117;SDS011;2578;51.622;7.046;2022-10-19T04:52:31;7.77;;;7.27;;
5117;SDS011;2578;51.622;7.046;2022-10-19T04:54:59;8.37;;;7.77;;
5117;SDS011;2578;51.622;7.046;2022-10-19T04:57:24;8.17;;;7.67;;
5117;SDS011;2578;51.622;7.046;2022-10-19T04:59:50;7.40;;;6.90;;
5117;SDS011;2578;51.622;7.046;2022-10-19T05:02:16;7.73;;;7.23;;
5117;SDS011;2578;51.622;7.046;2022-10-19T05:04:41;7.70;;;7.20;;
5117;SDS011;2578;51.622;7.046;2022-10-19T05:07:07;8.00;;;7.50;;
5117;SDS011;2578;51.622;7.046;2022-10-19T05:09:32;7.10;;;6.60;;
5117;SDS011;2578;51.622;7.046;2022-10-19T05:11:58;7.40;;;6.90;;
5117;SDS011;2578;51.622;7.046;2022-10-19T05:14:24;6.40;;;5.90;;
5117;SDS011;2578;51.622;7.046;2022-10-19T05:16:49;6.90;;;6.40;;
5117;SDS011;2578;51.622;7.046;2022-10-19T05:19:15;7.00;;;6.50;;
5117;SDS011;2578;51.622;7.046;2022-10-19T05:21:40;6.80;;;6.30;;
5117;SDS011;2578;51.622;7.046;2022-10-19T05:24:06;7.10;;;6.60;;
5117;SDS011;2578;51.622;7.046;2022-10-19T05:26:32;7.50;;;7.00;;
5117;SDS011;2578;51.622;7.046;2022-10-19T05:28:58;7.63;;;7.13;;
5117;SDS011;2578;51.622;7.046;2022-10-19T05:31:27;8.00;;;7.50;;
5117;SDS011;2578;51.622;7.046;2022-10-19T05:33:54;9.00;;;8.40;;
5117;SDS011;2578;51.622;7.046;2022-10-19T05:36:24;7.27;;;6.77;;
5117;SDS011;2578;51.622;7.046;2022-10-19T05:38:52;6.90;;;6.40;;
5117;SDS011;2578;51.622;7.046;2022-10-19T05:41:21;7.30;;;6.80;;
5117;SDS011;2578;51.622;7.046;2022-10-19T05:43:51;6.60;;;6.10;;
5117;SDS011;2578;51.622;7.046;2022-10-19T05:46:18;7.60;;;7.10;;
5117;SDS011;2578;51.622;7.046;2022-10-19T05:48:45;7.80;;;7.30;;
5117;SDS011;2578;51.622;7.046;2022-10-19T05:51:12;8.00;;;7.50;;
5117;SDS011;2578;51.622;7.046;2022-10-19T05:53:39;6.87;;;6.37;;
5117;SDS011;2578;51.622;7.046;2022-10-19T05:56:06;5.37;;;4.97;;
5117;SDS011;2578;51.622;7.046;2022-10-19T05:58:33;6.60;;;6.10;;
5117;SDS011;2578;51.622;7.046;2022-10-19T06:01:00;7.00;;;6.50;;
5117;SDS011;2578;51.622;7.046;2022-10-19T06:03:26;6.60;;;6.10;;
5117;SDS011;2578;51.622;7.046;2022-10-19T06:05:52;5.70;;;5.30;;
5117;SDS011;2578;51.622;7.046;2022-10-19T06:08:20;5.60;;;5.20;;
5117;SDS011;2578;51.622;7.046;2022-10-19T06:10:47;6.33;;;5.87;;
5117;SDS011;2578;51.622;7.046;2022-10-19T06:13:16;6.20;;;5.70;;
5117;SDS011;2578;51.622;7.046;2022-10-19T06:15:43;6.30;;;5.80;;
5117;SDS011;2578;51.622;7.046;2022-10-19T06:18:09;7.80;;;7.30;;
5117;SDS011;2578;51.622;7.046;2022-10-19T06:20:37;8.40;;;7.90;;
5117;SDS011;2578;51.622;7.046;2022-10-19T06:23:04;7.77;;;7.27;;
5117;SDS011;2578;51.622;7.046;2022-10-19T06:25:34;7.63;;;7.13;;
5117;SDS011;2578;51.622;7.046;2022-10-19T06:28:00;7.30;;;6.80;;
5117;SDS011;2578;51.622;7.046;2022-10-19T06:30:26;7.70;;;7.20;;
5117;SDS011;2578;51.622;7.046;2022-10-19T06:32:51;7.20;;;6.70;;
5117;SDS011;2578;51.622;7.046;2022-10-19T06:35:17;7.07;;;6.57;;
5117;SDS011;2578;51.622;7.046;2022-10-19T06:37:43;7.70;;;7.20;;
5117;SDS011;2578;51.622;7.046;2022-10-19T06:40:09;7.30;;;6.80;;
5117;SDS011;2578;51.622;7.046;2022-10-19T06:42:36;7.00;;;6.50;;
5117;SDS011;2578;51.622;7.046;2022-10-19T06:45:05;6.90;;;6.40;;
5117;SDS011;2578;51.622;7.046;2022-10-19T06:47:33;6.90;;;6.40;;
5117;SDS011;2578;51.622;7.046;2022-10-19T06:49:59;6.30;;;5.80;;
5117;SDS011;2578;51.622;7.046;2022-10-19T06:52:25;6.70;;;6.20;;
5117;SDS011;2578;51.622;7.046;2022-10-19T06:54:51;6.17;;;5.67;;
5117;SDS011;2578;51.622;7.046;2022-10-19T06:57:17;6.20;;;5.70;;
5117;SDS011;2578;51.622;7.046;2022-10-19T06:59:42;6.23;;;5.73;;
5117;SDS011;2578;51.622;7.046;2022-10-19T07:02:09;6.30;;;5.80;;
5117;SDS011;2578;51.622;7.046;2022-10-19T07:04:36;6.83;;;6.20;;
5117;SDS011;2578;51.622;7.046;2022-10-19T07:07:01;6.00;;;5.50;;
5117;SDS011;2578;51.622;7.046;2022-10-19T07:09:27;7.63;;;6.83;;
5117;SDS011;2578;51.622;7.046;2022-10-19T07:11:53;7.00;;;6.50;;
5117;SDS011;2578;51.622;7.046;2022-10-19T07:14:21;7.10;;;6.60;;
5117;SDS011;2578;51.622;7.046;2022-10-19T07:16:48;8.17;;;7.37;;
5117;SDS011;2578;51.622;7.046;2022-10-19T07:19:14;8.30;;;7.70;;
5117;SDS011;2578;51.622;7.046;2022-10-19T07:21:40;7.30;;;6.80;;
5117;SDS011;2578;51.622;7.046;2022-10-19T07:24:07;7.00;;;6.50;;
5117;SDS011;2578;51.622;7.046;2022-10-19T07:26:33;6.50;;;6.00;;
5117;SDS011;2578;51.622;7.046;2022-10-19T07:28:59;7.10;;;6.60;;
5117;SDS011;2578;51.622;7.046;2022-10-19T07:31:27;7.00;;;6.50;;
5117;SDS011;2578;51.622;7.046;2022-10-19T07:36:23;7.60;;;7.10;;
5117;SDS011;2578;51.622;7.046;2022-10-19T07:38:50;7.00;;;6.50;;
5117;SDS011;2578;51.622;7.046;2022-10-19T07:41:17;9.03;;;8.43;;
5117;SDS011;2578;51.622;7.046;2022-10-19T07:43:44;14.03;;;12.83;;
5117;SDS011;2578;51.622;7.046;2022-10-19T07:46:13;13.50;;;12.50;;
5117;SDS011;2578;51.622;7.046;2022-10-19T07:48:40;12.60;;;11.80;;
5117;SDS011;2578;51.622;7.046;2022-10-19T07:51:07;13.07;;;12.27;;
5117;SDS011;2578;51.622;7.046;2022-10-19T07:53:35;12.80;;;12.10;;
5117;SDS011;2578;51.622;7.046;2022-10-19T07:56:01;12.00;;;11.30;;
5117;SDS011;2578;51.622;7.046;2022-10-19T07:58:38;13.10;;;12.30;;
5117;SDS011;2578;51.622;7.046;2022-10-19T08:01:05;11.20;;;10.50;;
5117;SDS011;2578;51.622;7.046;2022-10-19T08:03:51;11.00;;;10.30;;
5117;SDS011;2578;51.622;7.046;2022-10-19T08:06:18;11.33;;;10.63;;
5117;SDS011;2578;51.622;7.046;2022-10-19T08:08:44;10.87;;;10.17;;
5117;SDS011;2578;51.622;7.046;2022-10-19T08:11:16;9.67;;;8.97;;
5117;SDS011;2578;51.622;7.046;2022-10-19T08:13:49;6.27;;;5.77;;
5117;SDS011;2578;51.622;7.046;2022-10-19T08:16:20;6.90;;;6.40;;
5117;SDS011;2578;51.622;7.046;2022-10-19T08:18:55;7.50;;;6.80;;
5117;SDS011;2578;51.622;7.046;2022-10-19T08:21:22;7.47;;;6.40;;
5117;SDS011;2578;51.622;7.046;2022-10-19T08:23:49;6.43;;;5.93;;
5117;SDS011;2578;51.622;7.046;2022-10-19T08:26:14;9.50;;;8.80;;
5117;SDS011;2578;51.622;7.046;2022-10-19T08:28:40;8.10;;;7.60;;
5117;SDS011;2578;51.622;7.046;2022-10-19T08:31:13;11.37;;;10.57;;
5117;SDS011;2578;51.622;7.046;2022-10-19T08:33:43;10.80;;;10.10;;
5117;SDS011;2578;51.622;7.046;2022-10-19T08:36:10;14.53;;;11.20;;
5117;SDS011;2578;51.622;7.046;2022-10-19T08:38:37;11.40;;;10.70;;
5117;SDS011;2578;51.622;7.046;2022-10-19T08:41:11;11.07;;;10.37;;
5117;SDS011;2578;51.622;7.046;2022-10-19T08:43:55;11.10;;;10.40;;
5117;SDS011;2578;51.622;7.046;2022-10-19T08:46:36;9.70;;;9.10;;
5117;SDS011;2578;51.622;7.046;2022-10-19T08:49:20;9.80;;;9.20;;
5117;SDS011;2578;51.622;7.046;2022-10-19T08:51:50;8.70;;;8.10;;
5117;SDS011;2578;51.622;7.046;2022-10-19T08:54:22;16.10;;;10.60;;
5117;SDS011;2578;51.622;7.046;2022-10-19T08:57:04;9.70;;;9.10;;
5117;SDS011;2578;51.622;7.046;2022-10-19T09:02:24;12.13;;;11.43;;
5117;SDS011;2578;51.622;7.046;2022-10-19T09:05:23;12.67;;;11.87;;
5117;SDS011;2578;51.622;7.046;2022-10-19T09:08:15;13.27;;;12.47;;
5117;SDS011;2578;51.622;7.046;2022-10-19T09:10:43;16.63;;;15.50;;
5117;SDS011;2578;51.622;7.046;2022-10-19T09:13:19;15.90;;;14.90;;
5117;SDS011;2578;51.622;7.046;2022-10-19T09:15:58;16.30;;;15.30;;
5117;SDS011;2578;51.622;7.046;2022-10-19T09:18:25;16.23;;;15.23;;
5117;SDS011;2578;51.622;7.046;2022-10-19T09:21:39;16.30;;;15.30;;
5117;SDS011;2578;51.622;7.046;2022-10-19T09:26:23;17.67;;;16.57;;
5117;SDS011;2578;51.622;7.046;2022-10-19T09:31:48;19.30;;;17.80;;
5117;SDS011;2578;51.622;7.046;2022-10-19T09:34:27;19.20;;;17.90;;
5117;SDS011;2578;51.622;7.046;2022-10-19T09:36:54;19.70;;;18.40;;
5117;SDS011;2578;51.622;7.046;2022-10-19T09:39:21;21.10;;;19.70;;
5117;SDS011;2578;51.622;7.046;2022-10-19T09:41:58;19.67;;;18.47;;
5117;SDS011;2578;51.622;7.046;2022-10-19T09:44:31;20.07;;;18.77;;
5117;SDS011;2578;51.622;7.046;2022-10-19T09:50:06;22.57;;;20.60;;
5117;SDS011;2578;51.622;7.046;2022-10-19T09:53:02;22.27;;;20.77;;
5117;SDS011;2578;51.622;7.046;2022-10-19T09:55:36;21.23;;;19.73;;
5117;SDS011;2578;51.622;7.046;2022-10-19T10:00:38;18.30;;;17.10;;
5117;SDS011;2578;51.622;7.046;2022-10-19T10:05:58;28.83;;;18.43;;
5117;SDS011;2578;51.622;7.046;2022-10-19T10:08:29;19.17;;;17.87;;
5117;SDS011;2578;51.622;7.046;2022-10-19T10:13:33;19.33;;;17.83;;
5117;SDS011;2578;51.622;7.046;2022-10-19T10:16:02;19.43;;;17.93;;
5117;SDS011;2578;51.622;7.046;2022-10-19T10:18:30;19.40;;;18.00;;
5117;SDS011;2578;51.622;7.046;2022-10-19T10:23:28;20.70;;;19.30;;
5117;SDS011;2578;51.622;7.046;2022-10-19T10:25:57;19.83;;;18.53;;
5117;SDS011;2578;51.622;7.046;2022-10-19T10:28:25;20.80;;;19.40;;
5117;SDS011;2578;51.622;7.046;2022-10-19T10:30:53;20.23;;;18.83;;
5117;SDS011;2578;51.622;7.046;2022-10-19T10:33:25;19.20;;;17.90;;
5117;SDS011;2578;51.622;7.046;2022-10-19T10:35:53;19.80;;;18.40;;
5117;SDS011;2578;51.622;7.046;2022-10-19T10:38:25;22.27;;;20.57;;
5117;SDS011;2578;51.622;7.046;2022-10-19T10:40:59;23.00;;;20.93;;
5117;SDS011;2578;51.622;7.046;2022-10-19T10:43:32;22.13;;;20.40;;
5117;SDS011;2578;51.622;7.046;2022-10-19T10:46:04;22.80;;;21.20;;
5117;SDS011;2578;51.622;7.046;2022-10-19T10:48:40;21.27;;;19.67;;
5117;SDS011;2578;51.622;7.046;2022-10-19T10:51:17;19.80;;;18.50;;
5117;SDS011;2578;51.622;7.046;2022-10-19T10:53:52;24.13;;;19.90;;
5117;SDS011;2578;51.622;7.046;2022-10-19T10:56:40;20.50;;;18.90;;
5117;SDS011;2578;51.622;7.046;2022-10-19T10:59:11;20.30;;;18.90;;
5117;SDS011;2578;51.622;7.046;2022-10-19T11:01:44;20.07;;;18.67;;
5117;SDS011;2578;51.622;7.046;2022-10-19T11:04:36;19.00;;;17.70;;
5117;SDS011;2578;51.622;7.046;2022-10-19T11:07:13;20.43;;;18.93;;
5117;SDS011;2578;51.622;7.046;2022-10-19T11:09:47;21.30;;;19.73;;
5117;SDS011;2578;51.622;7.046;2022-10-19T11:12:18;21.03;;;19.53;;
5117;SDS011;2578;51.622;7.046;2022-10-19T11:14:54;21.87;;;20.10;;
5117;SDS011;2578;51.622;7.046;2022-10-19T11:17:28;20.87;;;19.37;;
5117;SDS011;2578;51.622;7.046;2022-10-19T11:19:55;21.30;;;19.70;;
5117;SDS011;2578;51.622;7.046;2022-10-19T11:22:24;20.50;;;19.07;;
5117;SDS011;2578;51.622;7.046;2022-10-19T11:27:40;20.50;;;19.10;;
5117;SDS011;2578;51.622;7.046;2022-10-19T11:30:20;20.30;;;18.90;;
5117;SDS011;2578;51.622;7.046;2022-10-19T11:41:36;21.00;;;19.50;;
5117;SDS011;2578;51.622;7.046;2022-10-19T11:51:59;20.50;;;19.00;;
5117;SDS011;2578;51.622;7.046;2022-10-19T11:54:52;20.73;;;19.23;;
5117;SDS011;2578;51.622;7.046;2022-10-19T11:57:19;21.37;;;19.87;;
5117;SDS011;2578;51.622;7.046;2022-10-19T11:59:59;21.37;;;19.87;;
5117;SDS011;2578;51.622;7.046;2022-10-19T12:05:26;20.73;;;19.23;;
5117;SDS011;2578;51.622;7.046;2022-10-19T12:13:51;21.60;;;19.90;;
5117;SDS011;2578;51.622;7.046;2022-10-19T12:16:26;20.70;;;19.20;;
5117;SDS011;2578;51.622;7.046;2022-10-19T12:19:20;20.80;;;19.20;;
5117;SDS011;2578;51.622;7.046;2022-10-19T12:21:49;21.77;;;20.07;;
5117;SDS011;2578;51.622;7.046;2022-10-19T12:24:22;20.80;;;19.20;;
5117;SDS011;2578;51.622;7.046;2022-10-19T12:26:49;22.40;;;20.70;;
5117;SDS011;2578;51.622;7.046;2022-10-19T12:29:22;22.60;;;20.80;;
5117;SDS011;2578;51.622;7.046;2022-10-19T12:31:53;22.53;;;20.73;;
5117;SDS011;2578;51.622;7.046;2022-10-19T12:45:35;25.03;;;23.03;;
5117;SDS011;2578;51.622;7.046;2022-10-19T12:48:22;24.93;;;23.03;;
5117;SDS011;2578;51.622;7.046;2022-10-19T12:58:51;23.97;;;22.17;;
5117;SDS011;2578;51.622;7.046;2022-10-19T13:01:27;24.23;;;22.33;;
5117;SDS011;2578;51.622;7.046;2022-10-19T13:04:13;23.20;;;21.40;;
5117;SDS011;2578;51.622;7.046;2022-10-19T13:09:32;24.90;;;23.00;;
5117;SDS011;2578;51.622;7.046;2022-10-19T13:17:59;24.43;;;22.53;;
5117;SDS011;2578;51.622;7.046;2022-10-19T13:22:42;25.97;;;24.17;;
5117;SDS011;2578;51.622;7.046;2022-10-19T13:35:46;25.30;;;23.40;;
5117;SDS011;2578;51.622;7.046;2022-10-19T13:56:39;26.83;;;24.93;;
5117;SDS011;2578;51.622;7.046;2022-10-19T14:07:31;26.33;;;24.53;;
5117;SDS011;2578;51.622;7.046;2022-10-19T14:10:23;26.87;;;25.07;;
5117;SDS011;2578;51.622;7.046;2022-10-19T14:12:51;22.93;;;21.23;;
5117;SDS011;2578;51.622;7.046;2022-10-19T14:17:42;22.33;;;20.70;;
5117;SDS011;2578;51.622;7.046;2022-10-19T14:23:19;21.87;;;20.17;;
5117;SDS011;2578;51.622;7.046;2022-10-19T14:26:00;22.80;;;21.10;;
5117;SDS011;2578;51.622;7.046;2022-10-19T14:28:50;21.30;;;19.80;;
5117;SDS011;2578;51.622;7.046;2022-10-19T14:31:21;20.30;;;18.90;;
5117;SDS011;2578;51.622;7.046;2022-10-19T14:33:50;20.70;;;19.20;;
5117;SDS011;2578;51.622;7.046;2022-10-19T14:36:20;20.50;;;19.00;;
5117;SDS011;2578;51.622;7.046;2022-10-19T14:38:49;19.60;;;18.20;;
5117;SDS011;2578;51.622;7.046;2022-10-19T14:43:50;19.77;;;18.37;;
5117;SDS011;2578;51.622;7.046;2022-10-19T14:46:16;19.67;;;18.27;;
5117;SDS011;2578;51.622;7.046;2022-10-19T14:48:44;20.30;;;18.80;;
5117;SDS011;2578;51.622;7.046;2022-10-19T14:51:32;21.77;;;19.73;;
5117;SDS011;2578;51.622;7.046;2022-10-19T14:54:04;20.00;;;18.60;;
5117;SDS011;2578;51.622;7.046;2022-10-19T14:59:24;19.20;;;17.90;;
5117;SDS011;2578;51.622;7.046;2022-10-19T15:01:56;19.63;;;18.23;;
5117;SDS011;2578;51.622;7.046;2022-10-19T15:04:24;19.20;;;17.90;;
5117;SDS011;2578;51.622;7.046;2022-10-19T15:06:55;17.50;;;16.40;;
5117;SDS011;2578;51.622;7.046;2022-10-19T15:11:49;16.00;;;15.00;;
5117;SDS011;2578;51.622;7.046;2022-10-19T15:14:18;15.40;;;14.40;;
5117;SDS011;2578;51.622;7.046;2022-10-19T15:19:40;40.23;;;15.50;;
5117;SDS011;2578;51.622;7.046;2022-10-19T15:24:37;14.40;;;13.50;;
5117;SDS011;2578;51.622;7.046;2022-10-19T15:27:18;14.10;;;13.20;;
5117;SDS011;2578;51.622;7.046;2022-10-19T15:32:22;15.50;;;14.50;;
5117;SDS011;2578;51.622;7.046;2022-10-19T15:34:49;15.27;;;14.27;;
5117;SDS011;2578;51.622;7.046;2022-10-19T15:37:19;15.40;;;14.40;;
5117;SDS011;2578;51.622;7.046;2022-10-19T15:39:46;15.60;;;14.60;;
5117;SDS011;2578;51.622;7.046;2022-10-19T15:42:20;17.73;;;16.27;;
5117;SDS011;2578;51.622;7.046;2022-10-19T15:44:46;15.77;;;14.77;;
5117;SDS011;2578;51.622;7.046;2022-10-19T15:52:18;14.73;;;13.83;;
5117;SDS011;2578;51.622;7.046;2022-10-19T15:54:46;13.97;;;13.10;;
5117;SDS011;2578;51.622;7.046;2022-10-19T15:57:36;12.60;;;11.80;;
5117;SDS011;2578;51.622;7.046;2022-10-19T16:02:35;12.20;;;11.40;;
5117;SDS011;2578;51.622;7.046;2022-10-19T16:05:00;11.93;;;11.23;;
5117;SDS011;2578;51.622;7.046;2022-10-19T16:07:27;11.13;;;10.43;;
5117;SDS011;2578;51.622;7.046;2022-10-19T16:09:54;9.80;;;9.20;;
5117;SDS011;2578;51.622;7.046;2022-10-19T16:12:21;9.80;;;9.20;;
5117;SDS011;2578;51.622;7.046;2022-10-19T16:14:47;8.90;;;8.40;;
5117;SDS011;2578;51.622;7.046;2022-10-19T16:17:13;9.20;;;8.60;;
5117;SDS011;2578;51.622;7.046;2022-10-19T16:19:39;8.67;;;8.17;;
5117;SDS011;2578;51.622;7.046;2022-10-19T16:22:06;8.70;;;8.20;;
5117;SDS011;2578;51.622;7.046;2022-10-19T16:24:31;8.80;;;8.30;;
5117;SDS011;2578;51.622;7.046;2022-10-19T16:26:57;9.10;;;8.50;;
5117;SDS011;2578;51.622;7.046;2022-10-19T16:29:23;8.70;;;8.20;;
5117;SDS011;2578;51.622;7.046;2022-10-19T16:31:48;8.07;;;7.57;;
5117;SDS011;2578;51.622;7.046;2022-10-19T16:34:15;8.00;;;7.50;;
5117;SDS011;2578;51.622;7.046;2022-10-19T16:36:40;6.93;;;6.43;;
5117;SDS011;2578;51.622;7.046;2022-10-19T16:39:06;7.33;;;6.83;;
5117;SDS011;2578;51.622;7.046;2022-10-19T16:41:32;6.40;;;6.00;;
5117;SDS011;2578;51.622;7.046;2022-10-19T16:43:57;5.70;;;5.30;;
5117;SDS011;2578;51.622;7.046;2022-10-19T16:46:23;5.70;;;5.30;;
5117;SDS011;2578;51.622;7.046;2022-10-19T16:48:49;6.00;;;5.60;;
5117;SDS011;2578;51.622;7.046;2022-10-19T16:51:26;6.10;;;5.70;;
5117;SDS011;2578;51.622;7.046;2022-10-19T16:54:00;5.80;;;5.40;;
5117;SDS011;2578;51.622;7.046;2022-10-19T16:56:28;5.40;;;5.00;;
5117;SDS011;2578;51.622;7.046;2022-10-19T16:59:03;5.43;;;5.03;;
5117;SDS011;2578;51.622;7.046;2022-10-19T17:01:30;5.20;;;4.80;;
5117;SDS011;2578;51.622;7.046;2022-10-19T17:03:57;4.20;;;3.80;;
5117;SDS011;2578;51.622;7.046;2022-10-19T17:06:23;4.10;;;3.70;;
5117;SDS011;2578;51.622;7.046;2022-10-19T17:08:50;4.10;;;3.70;;
5117;SDS011;2578;51.622;7.046;2022-10-19T17:11:18;5.60;;;3.80;;
5117;SDS011;2578;51.622;7.046;2022-10-19T17:13:49;4.17;;;3.80;;
5117;SDS011;2578;51.622;7.046;2022-10-19T17:16:17;4.07;;;3.67;;
5117;SDS011;2578;51.622;7.046;2022-10-19T17:18:44;5.27;;;4.73;;
5117;SDS011;2578;51.622;7.046;2022-10-19T17:21:11;3.33;;;2.97;;
5117;SDS011;2578;51.622;7.046;2022-10-19T17:23:42;3.33;;;3.00;;
5117;SDS011;2578;51.622;7.046;2022-10-19T17:26:08;3.30;;;2.93;;
5117;SDS011;2578;51.622;7.046;2022-10-19T17:28:34;3.30;;;2.80;;
5117;SDS011;2578;51.622;7.046;2022-10-19T17:31:02;4.67;;;3.77;;
5117;SDS011;2578;51.622;7.046;2022-10-19T17:33:29;3.30;;;2.90;;
5117;SDS011;2578;51.622;7.046;2022-10-19T17:35:55;5.97;;;3.50;;
5117;SDS011;2578;51.622;7.046;2022-10-19T17:38:27;3.50;;;3.10;;
5117;SDS011;2578;51.622;7.046;2022-10-19T17:40:52;3.40;;;2.80;;
5117;SDS011;2578;51.622;7.046;2022-10-19T17:43:18;3.70;;;3.03;;
5117;SDS011;2578;51.622;7.046;2022-10-19T17:45:44;3.30;;;2.90;;
5117;SDS011;2578;51.622;7.046;2022-10-19T17:48:09;3.30;;;2.80;;
5117;SDS011;2578;51.622;7.046;2022-10-19T17:50:35;3.30;;;2.83;;
5117;SDS011;2578;51.622;7.046;2022-10-19T17:53:00;3.73;;;3.20;;
5117;SDS011;2578;51.622;7.046;2022-10-19T17:55:26;3.80;;;3.40;;
5117;SDS011;2578;51.622;7.046;2022-10-19T17:57:52;4.10;;;3.10;;
5117;SDS011;2578;51.622;7.046;2022-10-19T18:00:18;3.30;;;2.80;;
5117;SDS011;2578;51.622;7.046;2022-10-19T18:02:43;3.30;;;2.80;;
5117;SDS011;2578;51.622;7.046;2022-10-19T18:05:09;3.63;;;3.33;;
5117;SDS011;2578;51.622;7.046;2022-10-19T18:07:35;3.40;;;2.90;;
5117;SDS011;2578;51.622;7.046;2022-10-19T18:10:00;3.30;;;2.70;;
5117;SDS011;2578;51.622;7.046;2022-10-19T18:12:26;4.10;;;3.20;;
5117;SDS011;2578;51.622;7.046;2022-10-19T18:14:52;3.30;;;2.80;;
5117;SDS011;2578;51.622;7.046;2022-10-19T18:17:17;3.40;;;2.90;;
5117;SDS011;2578;51.622;7.046;2022-10-19T18:19:43;3.23;;;2.60;;
5117;SDS011;2578;51.622;7.046;2022-10-19T18:22:09;3.37;;;2.90;;
5117;SDS011;2578;51.622;7.046;2022-10-19T18:24:34;3.33;;;2.80;;
5117;SDS011;2578;51.622;7.046;2022-10-19T18:27:00;3.60;;;2.90;;